createdAt,value
2022-09-03T00:02:43.913Z,16.52
2022-09-03T00:05:49.700Z,16.53
2022-09-03T00:09:00.155Z,16.55
2022-09-03T00:12:09.808Z,16.56
2022-09-03T00:15:16.108Z,16.57
2022-09-03T00:18:22.156Z,16.58
2022-09-03T00:21:28.851Z,16.57
2022-09-03T00:24:36.764Z,16.55
2022-09-03T00:27:41.752Z,16.55
2022-09-03T00:30:47.491Z,16.55
2022-09-03T00:33:54.221Z,16.56
2022-09-03T00:37:00.340Z,16.56
2022-09-03T00:40:08.178Z,16.54
2022-09-03T00:43:17.243Z,16.53
2022-09-03T00:46:25.007Z,16.52
2022-09-03T00:49:34.360Z,16.51
2022-09-03T00:52:47.538Z,16.49
2022-09-03T00:55:58.953Z,16.47
2022-09-03T00:59:11.883Z,16.42
2022-09-03T01:02:21.236Z,16.39
2022-09-03T01:05:34.559Z,16.35
2022-09-03T01:08:51.028Z,16.31
2022-09-03T01:11:59.961Z,16.26
2022-09-03T01:15:10.059Z,16.19
2022-09-03T01:18:20.386Z,16.13
2022-09-03T01:21:48.948Z,16.08
2022-09-03T01:25:05.134Z,16.03
2022-09-03T01:28:20.001Z,15.98
2022-09-03T01:31:30.481Z,15.93
2022-09-03T01:34:42.060Z,15.88
2022-09-03T01:37:52.339Z,15.84
2022-09-03T01:41:24.723Z,15.79
2022-09-03T01:44:32.838Z,15.70
2022-09-03T01:47:50.441Z,15.65
2022-09-03T01:51:00.346Z,15.58
2022-09-03T01:54:27.850Z,15.50
2022-09-03T01:57:45.941Z,15.44
2022-09-03T02:00:53.171Z,15.40
2022-09-03T02:04:00.148Z,15.33
2022-09-03T02:07:06.000Z,15.26
2022-09-03T02:10:12.534Z,15.20
2022-09-03T02:13:18.587Z,15.16
2022-09-03T02:16:24.450Z,15.14
2022-09-03T02:19:29.090Z,15.11
2022-09-03T02:22:33.536Z,15.09
2022-09-03T02:25:39.336Z,15.07
2022-09-03T02:28:43.261Z,15.05
2022-09-03T02:31:47.310Z,15.02
2022-09-03T02:34:51.255Z,14.99
2022-09-03T02:37:55.223Z,14.96
2022-09-03T02:40:59.216Z,14.92
2022-09-03T02:44:06.399Z,14.89
2022-09-03T02:47:10.566Z,14.84
2022-09-03T02:50:14.563Z,14.81
2022-09-03T02:53:18.535Z,14.77
2022-09-03T02:56:26.961Z,14.75
2022-09-03T02:59:30.943Z,14.72
2022-09-03T03:02:34.988Z,14.70
2022-09-03T03:05:43.499Z,14.66
2022-09-03T03:08:47.779Z,14.63
2022-09-03T03:11:51.845Z,14.62
2022-09-03T03:14:55.776Z,14.61
2022-09-03T03:17:59.810Z,14.61
2022-09-03T03:21:06.519Z,14.62
2022-09-03T03:24:10.939Z,14.63
2022-09-03T03:27:15.059Z,14.63
2022-09-03T03:30:21.209Z,14.66
2022-09-03T03:33:25.254Z,14.67
2022-09-03T03:36:30.631Z,14.67
2022-09-03T03:39:34.584Z,14.68
2022-09-03T03:42:38.829Z,14.67
2022-09-03T03:45:42.775Z,14.66
2022-09-03T03:48:48.796Z,14.67
2022-09-03T03:51:52.841Z,14.67
2022-09-03T03:54:57.488Z,14.70
2022-09-03T03:58:01.417Z,14.74
2022-09-03T04:01:09.160Z,14.77
2022-09-03T04:04:13.152Z,14.81
2022-09-03T04:07:17.152Z,14.85
2022-09-03T04:10:21.231Z,14.88
2022-09-03T04:13:25.203Z,14.92
2022-09-03T04:16:29.814Z,14.95
2022-09-03T04:19:33.894Z,14.98
2022-09-03T04:22:37.843Z,15.02
2022-09-03T04:25:41.978Z,15.05
2022-09-03T04:28:46.012Z,15.08
2022-09-03T04:32:09.018Z,15.09
2022-09-03T04:35:12.966Z,15.11
2022-09-03T04:38:17.439Z,15.14
2022-09-03T04:41:22.167Z,15.17
2022-09-03T04:44:26.132Z,15.20
2022-09-03T04:47:30.153Z,15.24
2022-09-03T04:50:35.802Z,15.28
2022-09-03T04:53:40.679Z,15.31
2022-09-03T04:56:44.724Z,15.36
2022-09-03T04:59:48.667Z,15.38
2022-09-03T05:02:52.867Z,15.39
2022-09-03T05:05:57.056Z,15.40
2022-09-03T05:09:01.412Z,15.43
2022-09-03T05:12:05.929Z,15.45
2022-09-03T05:15:10.715Z,15.48
2022-09-03T05:18:15.254Z,15.52
2022-09-03T05:21:19.810Z,15.55
2022-09-03T05:24:25.108Z,15.57
2022-09-03T05:27:29.016Z,15.60
2022-09-03T05:30:33.014Z,15.64
2022-09-03T05:33:38.060Z,15.70
2022-09-03T05:36:42.035Z,15.76
2022-09-03T05:39:46.020Z,15.82
2022-09-03T05:42:56.653Z,15.87
2022-09-03T05:46:01.319Z,15.94
2022-09-03T05:49:06.467Z,16.00
2022-09-03T05:52:10.397Z,16.07
2022-09-03T05:55:14.355Z,16.11
2022-09-03T05:58:19.593Z,16.11
2022-09-03T06:01:24.542Z,16.07
2022-09-03T06:04:28.464Z,16.02
2022-09-03T06:07:34.249Z,15.98
2022-09-03T06:10:40.976Z,15.97
2022-09-03T06:13:45.198Z,15.99
2022-09-03T06:16:50.047Z,16.00
2022-09-03T06:19:54.092Z,15.99
2022-09-03T06:22:58.251Z,16.00
2022-09-03T06:26:05.268Z,16.01
2022-09-03T06:29:09.755Z,16.04
2022-09-03T06:32:14.503Z,16.08
2022-09-03T06:35:18.575Z,16.15
2022-09-03T06:38:22.595Z,16.19
2022-09-03T06:41:27.745Z,16.25
2022-09-03T06:44:31.794Z,16.32
2022-09-03T06:47:35.901Z,16.39
2022-09-03T06:50:39.828Z,16.46
2022-09-03T06:53:44.835Z,16.50
2022-09-03T06:56:48.758Z,16.52
2022-09-03T06:59:54.756Z,16.59
2022-09-03T07:02:59.942Z,16.66
2022-09-03T07:06:05.234Z,16.72
2022-09-03T07:09:09.803Z,16.72
2022-09-03T07:12:16.031Z,16.76
2022-09-03T07:15:20.578Z,16.86
2022-09-03T07:18:24.644Z,16.94
2022-09-03T07:21:30.002Z,17.03
2022-09-03T07:24:34.020Z,17.14
2022-09-03T07:27:38.166Z,17.23
2022-09-03T07:30:42.112Z,17.30
2022-09-03T07:33:46.362Z,17.33
2022-09-03T07:36:51.770Z,17.39
2022-09-03T07:39:56.022Z,17.46
2022-09-03T07:43:04.421Z,17.49
2022-09-03T07:46:08.713Z,17.51
2022-09-03T07:49:12.810Z,17.56
2022-09-03T07:52:16.856Z,17.61
2022-09-03T07:55:22.507Z,17.68
2022-09-03T07:58:26.553Z,17.73
2022-09-03T08:01:31.588Z,17.75
2022-09-03T08:04:36.450Z,17.79
2022-09-03T08:07:40.377Z,17.78
2022-09-03T08:10:45.642Z,17.78
2022-09-03T08:13:50.219Z,17.80
2022-09-03T08:16:54.169Z,17.88
2022-09-03T08:19:59.092Z,17.99
2022-09-03T08:23:03.759Z,18.07
2022-09-03T08:26:08.311Z,18.11
2022-09-03T08:29:12.329Z,18.19
2022-09-03T08:32:16.304Z,18.14
2022-09-03T08:35:21.636Z,18.19
2022-09-03T08:38:26.098Z,18.26
2022-09-03T08:41:45.195Z,18.33
2022-09-03T08:44:51.353Z,18.41
2022-09-03T08:48:00.807Z,18.50
2022-09-03T08:51:05.036Z,18.65
2022-09-03T08:54:11.403Z,18.84
2022-09-03T08:57:16.063Z,18.98
2022-09-03T09:00:20.486Z,19.10
2022-09-03T09:03:43.509Z,19.16
2022-09-03T09:06:51.977Z,19.24
2022-09-03T09:10:01.627Z,19.26
2022-09-03T09:13:13.599Z,18.96
2022-09-03T09:16:20.705Z,18.38
2022-09-03T09:19:31.659Z,18.05
2022-09-03T09:22:39.498Z,18.28
2022-09-03T09:25:48.508Z,18.55
2022-09-03T09:28:55.207Z,18.76
2022-09-03T09:31:59.184Z,18.92
2022-09-03T09:35:03.414Z,19.02
2022-09-03T09:38:07.541Z,19.11
2022-09-03T09:41:12.919Z,19.21
2022-09-03T09:44:22.015Z,19.31
2022-09-03T09:47:28.209Z,19.30
2022-09-03T09:50:32.255Z,18.86
2022-09-03T09:53:36.390Z,18.44
2022-09-03T09:56:40.448Z,18.13
2022-09-03T09:59:44.696Z,17.94
2022-09-03T10:02:50.947Z,17.84
2022-09-03T10:06:23.916Z,18.15
2022-09-03T10:09:31.199Z,18.52
2022-09-03T10:12:38.139Z,18.75
2022-09-03T10:15:46.471Z,18.91
2022-09-03T10:18:54.256Z,19.04
2022-09-03T10:22:06.503Z,18.81
2022-09-03T10:25:11.258Z,18.36
2022-09-03T10:28:15.265Z,18.07
2022-09-03T10:31:37.806Z,17.90
2022-09-03T10:34:46.235Z,17.99
2022-09-03T10:37:52.220Z,18.43
2022-09-03T10:41:00.959Z,18.82
2022-09-03T10:44:15.714Z,19.15
2022-09-03T10:47:28.237Z,19.40
2022-09-03T10:50:48.553Z,19.65
2022-09-03T10:54:05.278Z,19.85
2022-09-03T10:57:15.623Z,19.65
2022-09-03T11:00:20.481Z,19.17
2022-09-03T11:03:33.934Z,18.80
2022-09-03T11:06:42.496Z,18.59
2022-09-03T11:09:49.687Z,18.45
2022-09-03T11:12:58.738Z,18.40
2022-09-03T11:16:06.631Z,18.82
2022-09-03T11:19:12.679Z,19.26
2022-09-03T11:22:20.772Z,19.55
2022-09-03T11:25:28.674Z,19.76
2022-09-03T11:28:40.643Z,19.80
2022-09-03T11:31:57.970Z,19.39
2022-09-03T11:35:02.387Z,19.01
2022-09-03T11:38:08.309Z,18.73
2022-09-03T11:41:16.491Z,18.52
2022-09-03T11:44:21.078Z,18.34
2022-09-03T11:47:25.869Z,18.22
2022-09-03T11:50:30.889Z,18.43
2022-09-03T11:53:37.864Z,18.90
2022-09-03T11:56:43.036Z,19.22
2022-09-03T11:59:47.168Z,19.43
2022-09-03T12:02:58.146Z,19.62
2022-09-03T12:06:13.756Z,19.80
2022-09-03T12:09:31.328Z,19.71
2022-09-03T12:12:55.060Z,19.36
2022-09-03T12:16:09.159Z,19.10
2022-09-03T12:19:22.592Z,18.94
2022-09-03T12:22:28.948Z,18.88
2022-09-03T12:25:33.395Z,18.87
2022-09-03T12:28:38.585Z,18.95
2022-09-03T12:31:52.700Z,19.48
2022-09-03T12:34:56.879Z,19.98
2022-09-03T12:38:05.999Z,20.38
2022-09-03T12:41:27.377Z,20.41
2022-09-03T12:44:33.524Z,20.07
2022-09-03T12:47:41.309Z,19.78
2022-09-03T12:50:49.390Z,19.64
2022-09-03T12:54:01.306Z,19.58
2022-09-03T12:57:05.964Z,19.50
2022-09-03T13:00:15.160Z,19.46
2022-09-03T13:03:22.033Z,19.46
2022-09-03T13:06:27.230Z,19.42
2022-09-03T13:09:32.403Z,19.41
2022-09-03T13:12:44.660Z,19.46
2022-09-03T13:15:58.146Z,19.48
2022-09-03T13:19:06.788Z,19.49
2022-09-03T13:22:14.156Z,19.45
2022-09-03T13:25:24.798Z,19.40
2022-09-03T13:28:35.677Z,19.37
2022-09-03T13:31:43.069Z,19.36
2022-09-03T13:34:52.295Z,19.36
2022-09-03T13:37:59.151Z,19.34
2022-09-03T13:41:07.947Z,19.28
2022-09-03T13:44:16.047Z,19.19
2022-09-03T13:47:27.078Z,19.14
2022-09-03T13:50:35.493Z,19.10
2022-09-03T13:53:43.620Z,19.02
2022-09-03T13:56:53.399Z,18.88
2022-09-03T14:00:03.598Z,18.78
2022-09-03T14:03:13.108Z,18.72
2022-09-03T14:06:22.160Z,18.70
2022-09-03T14:09:35.001Z,18.75
2022-09-03T14:12:44.362Z,18.81
2022-09-03T14:15:51.291Z,18.89
2022-09-03T14:18:57.982Z,18.95
2022-09-03T14:22:06.572Z,18.99
2022-09-03T14:25:15.799Z,18.99
2022-09-03T14:28:28.199Z,18.92
2022-09-03T14:31:43.095Z,18.89
2022-09-03T14:34:55.477Z,18.88
2022-09-03T14:38:21.586Z,18.88
2022-09-03T14:41:37.476Z,18.81
2022-09-03T14:44:49.719Z,18.74
2022-09-03T14:48:02.319Z,18.68
2022-09-03T14:51:26.010Z,18.63
2022-09-03T14:54:43.531Z,18.56
2022-09-03T14:57:58.391Z,18.51
2022-09-03T15:01:05.201Z,18.81
2022-09-03T15:04:25.546Z,19.32
2022-09-03T15:07:36.834Z,19.70
2022-09-03T15:10:46.366Z,19.93
2022-09-03T15:13:53.663Z,20.05
2022-09-03T15:17:00.608Z,19.79
2022-09-03T15:20:14.476Z,19.42
2022-09-03T15:23:35.109Z,19.14
2022-09-03T15:26:47.296Z,18.95
2022-09-03T15:29:53.842Z,18.80
2022-09-03T15:33:07.520Z,18.69
2022-09-03T15:36:17.859Z,18.63
2022-09-03T15:39:24.487Z,18.58
2022-09-03T15:42:29.372Z,18.55
2022-09-03T15:45:36.996Z,18.51
2022-09-03T15:48:46.821Z,18.48
2022-09-03T15:51:56.858Z,18.46
2022-09-03T15:55:04.109Z,18.42
2022-09-03T15:58:14.579Z,18.39
2022-09-03T16:01:24.790Z,18.36
2022-09-03T16:04:35.616Z,18.35
2022-09-03T16:08:06.160Z,18.42
2022-09-03T16:11:14.920Z,18.99
2022-09-03T16:14:22.777Z,19.45
2022-09-03T16:17:30.472Z,19.76
2022-09-03T16:20:36.687Z,20.01
2022-09-03T16:23:42.578Z,20.20
2022-09-03T16:26:51.302Z,20.33
2022-09-03T16:30:00.011Z,20.46
2022-09-03T16:33:10.459Z,20.58
2022-09-03T16:36:24.848Z,20.68
2022-09-03T16:39:37.439Z,20.41
2022-09-03T16:42:44.053Z,19.95
2022-09-03T16:45:51.778Z,19.60
2022-09-03T16:49:02.376Z,19.33
2022-09-03T16:52:11.959Z,19.10
2022-09-03T16:55:22.934Z,18.91
2022-09-03T16:58:35.485Z,18.73
2022-09-03T17:01:46.065Z,18.57
2022-09-03T17:05:07.890Z,18.65
2022-09-03T17:08:23.567Z,19.15
2022-09-03T17:11:41.685Z,19.46
2022-09-03T17:14:51.437Z,19.66
2022-09-03T17:18:18.026Z,19.81
2022-09-03T17:21:28.904Z,19.93
2022-09-03T17:24:37.813Z,20.03
2022-09-03T17:27:48.466Z,20.04
2022-09-03T17:30:56.804Z,19.64
2022-09-03T17:34:06.868Z,19.22
2022-09-03T17:37:19.068Z,18.88
2022-09-03T17:40:30.255Z,18.62
2022-09-03T17:43:42.395Z,18.41
2022-09-03T17:46:49.079Z,18.23
2022-09-03T17:49:54.790Z,18.06
2022-09-03T17:53:01.862Z,17.90
2022-09-03T17:56:07.827Z,17.76
2022-09-03T17:59:16.767Z,17.67
2022-09-03T18:02:28.436Z,17.99
2022-09-03T18:05:35.622Z,18.41
2022-09-03T18:08:45.379Z,18.69
2022-09-03T18:11:50.936Z,18.92
2022-09-03T18:14:57.865Z,19.07
2022-09-03T18:18:05.651Z,19.21
2022-09-03T18:21:32.003Z,19.32
2022-09-03T18:24:58.065Z,19.43
2022-09-03T18:28:22.715Z,19.52
2022-09-03T18:31:48.033Z,19.59
2022-09-03T18:35:09.602Z,19.65
2022-09-03T18:38:33.964Z,19.68
2022-09-03T18:42:11.719Z,19.71
2022-09-03T18:46:11.555Z,19.74
2022-09-03T18:49:21.858Z,19.76
2022-09-03T18:52:45.845Z,19.77
2022-09-03T18:56:15.659Z,19.77
2022-09-03T18:59:44.372Z,19.75
2022-09-03T19:03:13.224Z,19.27
2022-09-03T19:06:42.588Z,18.66
2022-09-03T19:10:11.392Z,18.20
2022-09-03T19:13:41.356Z,17.82
2022-09-03T19:17:13.263Z,17.50
2022-09-03T19:20:39.696Z,17.19
2022-09-03T19:24:01.564Z,17.09
2022-09-03T19:27:51.858Z,17.43
2022-09-03T19:31:11.758Z,17.74
2022-09-03T19:34:47.071Z,17.88
2022-09-03T19:38:14.900Z,17.98
2022-09-03T19:41:41.588Z,18.04
2022-09-03T19:45:11.865Z,18.09
2022-09-03T19:48:39.090Z,18.13
2022-09-03T19:52:03.115Z,18.16
2022-09-03T19:55:25.717Z,18.17
2022-09-03T19:58:54.751Z,18.18
2022-09-03T20:02:16.812Z,18.18
2022-09-03T20:05:39.500Z,18.18
2022-09-03T20:09:01.379Z,18.16
2022-09-03T20:12:10.016Z,18.13
2022-09-03T20:15:14.790Z,18.11
2022-09-03T20:18:23.886Z,18.09
2022-09-03T20:21:33.043Z,18.06
2022-09-03T20:24:46.095Z,18.03
2022-09-03T20:27:54.283Z,18.00
2022-09-03T20:31:02.519Z,17.97
2022-09-03T20:34:12.181Z,17.95
2022-09-03T20:37:27.581Z,17.91
2022-09-03T20:40:39.540Z,17.86
2022-09-03T20:43:57.564Z,17.82
2022-09-03T20:47:10.314Z,17.77
2022-09-03T20:50:20.819Z,17.73
2022-09-03T20:53:43.550Z,17.66
2022-09-03T20:57:10.831Z,17.60
2022-09-03T21:00:18.515Z,17.54
2022-09-03T21:03:23.356Z,17.49
2022-09-03T21:06:31.615Z,17.46
2022-09-03T21:09:40.184Z,17.40
2022-09-03T21:12:49.002Z,17.35
2022-09-03T21:15:59.230Z,17.30
2022-09-03T21:19:09.154Z,17.24
2022-09-03T21:22:22.815Z,17.18
2022-09-03T21:25:31.388Z,17.11
2022-09-03T21:28:38.672Z,17.05
2022-09-03T21:31:45.329Z,16.99
2022-09-03T21:34:55.795Z,16.95
2022-09-03T21:38:04.709Z,16.93
2022-09-03T21:41:15.841Z,16.89
2022-09-03T21:44:23.225Z,16.84
2022-09-03T21:47:29.030Z,16.78
2022-09-03T21:50:41.482Z,16.72
2022-09-03T21:53:47.743Z,16.65
2022-09-03T21:56:56.882Z,16.58
2022-09-03T22:00:11.606Z,16.51
2022-09-03T22:03:16.335Z,16.46
2022-09-03T22:06:25.927Z,16.44
2022-09-03T22:09:33.402Z,16.42
2022-09-03T22:12:42.286Z,16.40
2022-09-03T22:15:52.189Z,16.38
2022-09-03T22:18:56.942Z,16.36
2022-09-03T22:22:03.063Z,16.34
2022-09-03T22:25:10.433Z,16.31
2022-09-03T22:28:20.309Z,16.28
2022-09-03T22:31:28.613Z,16.25
2022-09-03T22:34:42.452Z,16.16
2022-09-03T22:37:54.207Z,16.10
2022-09-03T22:41:06.244Z,16.07
2022-09-03T22:44:15.059Z,16.02
2022-09-03T22:47:26.439Z,16.00
2022-09-03T22:50:34.065Z,15.96
2022-09-03T22:53:45.298Z,15.91
2022-09-03T22:56:50.294Z,15.88
2022-09-03T22:59:57.895Z,15.84
2022-09-03T23:03:04.893Z,15.79
2022-09-03T23:06:14.021Z,15.75
2022-09-03T23:09:20.918Z,15.70
2022-09-03T23:12:29.186Z,15.65
2022-09-03T23:15:34.967Z,15.61
2022-09-03T23:18:42.661Z,15.57
2022-09-03T23:21:51.591Z,15.54
2022-09-03T23:24:58.778Z,15.50
2022-09-03T23:28:04.188Z,15.45
2022-09-03T23:31:12.822Z,15.42
2022-09-03T23:34:17.307Z,15.38
2022-09-03T23:37:34.481Z,15.34
2022-09-03T23:40:44.343Z,15.28
2022-09-03T23:44:02.251Z,15.23
2022-09-03T23:47:13.568Z,15.19
2022-09-03T23:50:26.760Z,15.17
2022-09-03T23:53:37.442Z,15.13
2022-09-03T23:56:58.018Z,15.09
